Latest Weather Observations for Yarrawonga

IDV60801

Issued at 5:03 pm EDT Sunday 4 December 2016 (issued every 30 minutes, with the page automatically refreshed every 10 minutes)

About weather observations | Map of weather stations | Latest weather observations for VIC | Other Formats
Station Details ID: 081124 Name: YARRAWONGA Lat: -36.03 Lon: 146.03 Height: 128.9 m
Data from the previous 72 hours. | See also: Recent months at Yarrawonga
Date/Time
EDT
Temp
°C
App
Temp
°C
Dew
Point
°C
Rel
Hum
%
Delta-T
°C
Wind Press
QNH
hPa
Press
MSL
hPa
Rain since
9am
mm
Dir  Spd
km/h
Gust
km/h
Spd
kts
Gust
kts
04/05:00pm 31.3 30.1 14.0 35 10.5 NNW 13 24 7 13 1008.0 1007.5 0.0
04/04:35pm 31.9 27.6 13.2 32 11.3 NNW 28 48 15 26 1007.8 1007.3 0.0
04/04:30pm 33.2 30.1 12.2 28 12.6 NNW 20 39 11 21 1007.5 1007.0 0.0
04/04:00pm 34.6 29.8 10.4 23 14.2 NNW 26 35 14 19 1007.8 1007.3 0.0
04/03:30pm 34.8 29.0 9.3 21 14.7 NNW 30 37 16 20 1007.9 1007.4 0.0
04/03:00pm 35.0 31.3 10.1 22 14.5 NNW 20 28 11 15 1008.1 1007.6 0.0
04/02:30pm 35.6 31.6 9.2 20 15.2 NNW 20 35 11 19 1008.6 1008.1 0.0
04/02:00pm 34.3 31.0 8.1 20 14.8 N 15 22 8 12 1009.2 1008.7 0.0
04/01:30pm 33.7 30.3 9.0 22 14.1 NNW 17 24 9 13 1009.8 1009.3 0.0
04/01:00pm 33.9 28.2 8.5 21 14.4 N 28 39 15 21 1010.3 1009.8 0.0
04/12:30pm 32.8 28.0 8.9 23 13.5 N 24 37 13 20 1010.7 1010.2 0.0
04/12:00pm 33.2 29.1 8.6 22 13.9 N 20 30 11 16 1010.7 1010.2 0.0
04/11:30am 33.9 30.3 8.5 21 14.4 N 17 26 9 14 1010.8 1010.3 0.0
04/11:00am 32.5 28.1 6.7 20 14.1 NE 19 26 10 14 1010.7 1010.2 0.0
04/10:30am 29.9 26.0 7.2 24 12.3 NE 17 24 9 13 1011.3 1010.8 0.0
04/10:00am 28.9 26.1 8.6 28 11.2 NE 13 19 7 10 1012.0 1011.5 0.0
04/09:30am 27.6 23.9 8.0 29 10.6 NE 17 20 9 11 1011.9 1011.4 0.0
04/09:00am 24.5 21.4 8.9 37 8.5 ENE 15 22 8 12 1012.0 1011.5 0.0
04/08:30am 22.5 18.9 8.2 40 7.6 ENE 17 22 9 12 1012.2 1011.7 0.0
04/08:00am 21.4 18.2 8.3 43 6.9 ENE 15 20 8 11 1012.2 1011.7 0.0
04/07:30am 19.2 16.1 7.3 46 6.1 ENE 13 19 7 10 1012.1 1011.6 0.0
04/07:00am 17.6 14.4 6.8 49 5.4 E 13 17 7 9 1011.7 1011.2 0.0
04/06:30am 15.6 13.2 6.9 56 4.3 E 9 13 5 7 1012.2 1011.7 0.0
04/06:00am 14.0 11.6 7.1 63 3.4 E 9 13 5 7 1011.8 1011.3 0.0
04/05:30am 13.4 10.9 6.5 63 3.3 E 9 11 5 6 1011.8 1011.3 0.0
04/05:00am 13.9 11.8 6.5 61 3.6 ESE 7 9 4 5 1011.5 1011.0 0.0
04/04:30am 14.2 12.0 6.3 59 3.8 E 7 9 4 5 1011.1 1010.6 0.0
04/04:00am 13.9 11.3 6.3 60 3.7 E 9 9 5 5 1011.1 1010.6 0.0
04/03:30am 14.3 12.2 5.9 57 4.0 E 6 7 3 4 1011.4 1010.9 0.0
04/03:00am 15.3 12.6 5.5 52 4.7 E 9 11 5 6 1011.7 1011.2 0.0
04/02:30am 15.4 12.7 5.6 52 4.7 ENE 9 11 5 6 1011.7 1011.2 0.0
04/02:00am 15.6 13.4 5.5 51 4.9 E 6 7 3 4 1011.8 1011.3 0.0
04/01:30am 16.1 13.9 5.4 49 5.1 ESE 6 7 3 4 1011.9 1011.4 0.0
04/01:00am 16.0 13.0 6.2 52 4.8 ESE 11 13 6 7 1012.1 1011.6 0.0
04/12:30am 16.7 14.6 6.8 52 4.9 E 7 9 4 5 1012.6 1012.2 0.0
04/12:00am 16.9 14.8 6.7 51 5.1 ESE 7 9 4 5 1012.8 1012.4 0.0
 
Date/Time
EDT
Temp
°C
App
Temp
°C
Dew
Point
°C
Rel
Hum
%
Delta-T
°C
Wind Press
QNH
hPa
Press
MSL
hPa
Rain since
9am
mm
Dir  Spd
km/h
Gust
km/h
Spd
kts
Gust
kts
03/11:30pm 17.6 15.9 7.4 51 5.2 ESE 6 7 3 4 1012.9 1012.5 0.0
03/11:00pm 17.4 16.3 8.5 56 4.6 SE 4 4 2 2 1013.1 1012.7 0.0
03/10:30pm 18.3 17.1 9.4 56 4.7 SE 6 6 3 3 1013.0 1012.6 0.0
03/10:00pm 18.9 17.7 10.2 57 4.7 SSE 7 9 4 5 1013.1 1012.7 0.0
03/09:30pm 20.1 18.9 9.4 50 5.7 SSE 6 6 3 3 1012.8 1012.4 0.0
03/09:00pm 21.4 20.1 7.6 41 7.2 SE 4 6 2 3 1012.7 1012.3 0.0
03/08:30pm 23.1 21.2 7.6 37 8.2 S 7 7 4 4 1012.5 1012.1 0.0
03/08:00pm 25.9 23.6 7.5 31 9.8 S 9 11 5 6 1012.3 1011.8 0.0
03/07:30pm 29.0 26.5 6.4 24 12.0 SSW 9 13 5 7 1012.0 1011.5 0.0
03/07:00pm 30.3 28.0 5.6 21 13.1 SW 7 13 4 7 1011.8 1011.3 0.0
03/06:30pm 30.1 27.7 5.4 21 13.0 SW 7 15 4 8 1011.7 1011.2 0.0
03/06:00pm 31.1 28.4 5.5 20 13.6 W 9 15 5 8 1011.6 1011.1 0.0
03/05:30pm 31.1 28.9 6.2 21 13.4 WSW 7 19 4 10 1011.7 1011.2 0.0
03/05:00pm 30.9 27.9 6.0 21 13.3 NNW 11 26 6 14 1011.8 1011.3 0.0
03/04:30pm 30.8 28.2 6.0 21 13.3 WSW 9 24 5 13 1012.0 1011.5 0.0
03/04:00pm 30.7 27.8 6.6 22 13.0 W 11 22 6 12 1012.2 1011.7 0.0
03/03:30pm 30.1 26.9 6.7 23 12.6 W 13 28 7 15 1012.5 1012.1 0.0
03/03:00pm 30.4 26.9 7.0 23 12.7 WSW 15 26 8 14 1012.8 1012.4 0.0
03/02:30pm 29.6 26.5 5.6 22 12.7 WSW 11 24 6 13 1012.9 1012.5 0.0
03/02:00pm 29.2 25.1 6.0 23 12.3 W 17 26 9 14 1013.3 1012.9 0.0
03/01:30pm 28.9 24.6 8.0 27 11.4 SW 20 33 11 18 1013.5 1013.1 0.0
03/01:00pm 28.5 24.3 8.2 28 11.1 SW 20 32 11 17 1013.6 1013.2 0.0
03/12:30pm 28.5 23.4 7.7 27 11.3 SW 24 39 13 21 1014.0 1013.6 0.0
03/12:00pm 28.2 23.8 7.4 27 11.2 WSW 20 35 11 19 1014.1 1013.7 0.0
03/11:30am 27.7 23.5 7.5 28 10.9 W 19 28 10 15 1014.2 1013.8 0.0
03/11:00am 27.0 24.3 7.5 29 10.5 W 11 19 6 10 1014.2 1013.8 0.0
03/10:30am 26.0 24.5 10.6 38 8.7 W 9 19 5 10 1014.2 1013.8 0.0
03/10:00am 25.2 25.2 11.0 41 8.0 WSW 2 6 1 3 1014.2 1013.8 0.0
03/09:30am 23.7 23.4 11.4 46 6.9 WNW 4 9 2 5 1014.2 1013.8 0.0
03/09:00am 22.1 22.2 12.6 55 5.4 SW 4 7 2 4 1014.0 1013.6 0.0
03/08:30am 20.0 20.0 12.5 62 4.2 SW 4 6 2 3 1014.0 1013.6 0.0
03/08:00am 17.6 17.0 12.3 71 2.9 SW 7 9 4 5 1013.8 1013.4 0.0
03/07:30am 15.4 14.3 11.8 79 2.0 SW 9 11 5 6 1013.3 1012.9 0.0
03/07:00am 13.4 12.4 11.1 86 1.2 SW 7 9 4 5 1013.3 1012.9 0.0
03/06:30am 11.7 10.5 10.4 92 0.7 WSW 7 9 4 5 1012.9 1012.5 0.0
03/06:00am 11.4 10.1 10.1 92 0.7 WSW 7 9 4 5 1012.5 1012.1 0.0
03/05:30am 11.4 9.7 9.8 90 0.8 WSW 9 9 5 5 1012.0 1011.5 0.0
03/05:00am 12.1 10.9 10.2 88 1.0 WSW 7 9 4 5 1011.7 1011.2 0.0
03/04:30am 12.1 10.9 10.2 88 1.0 WSW 7 9 4 5 1011.5 1011.0 0.0
03/04:00am 12.2 10.9 10.1 87 1.1 WSW 7 9 4 5 1011.5 1011.0 0.0
03/03:30am 12.7 11.5 10.2 85 1.3 SW 7 7 4 4 1011.3 1010.8 0.0
03/03:00am 13.3 12.1 10.3 82 1.6 SW 7 9 4 5 1011.5 1011.0 0.0
03/02:30am 13.6 11.3 10.4 81 1.7 SW 13 13 7 7 1011.6 1011.1 0.0
03/02:00am 14.4 12.8 10.2 76 2.2 WSW 9 11 5 6 1011.9 1011.4 0.0
03/01:30am 14.9 13.3 10.3 74 2.4 SW 9 11 5 6 1012.0 1011.5 0.0
03/01:00am 15.1 13.9 10.3 73 2.5 WSW 7 9 4 5 1012.1 1011.6 0.0
03/12:30am 15.6 14.0 10.2 70 2.9 SW 9 11 5 6 1012.2 1011.7 0.0
03/12:00am 16.5 14.8 9.9 65 3.5 SW 9 11 5 6 1012.2 1011.7 0.0
 
Date/Time
EDT
Temp
°C
App
Temp
°C
Dew
Point
°C
Rel
Hum
%
Delta-T
°C
Wind Press
QNH
hPa
Press
MSL
hPa
Rain since
9am
mm
Dir  Spd
km/h
Gust
km/h
Spd
kts
Gust
kts
02/11:30pm 17.5 15.8 9.7 60 4.1 SW 9 11 5 6 1012.1 1011.6 0.0
02/11:00pm 18.0 16.9 10.1 60 4.2 WSW 6 7 3 4 1012.2 1011.7 0.0
02/10:30pm 18.0 16.9 10.1 60 4.2 WSW 6 6 3 3 1011.9 1011.4 0.0
02/10:00pm 19.0 18.2 9.8 55 4.9 WSW 4 6 2 3 1011.8 1011.3 0.0
02/09:30pm 19.9 18.3 8.6 48 5.9 WSW 7 7 4 4 1011.6 1011.1 0.0
02/09:00pm 21.6 20.2 8.8 44 6.8 WSW 6 7 3 4 1011.3 1010.8 0.0
02/08:30pm 22.3 20.1 7.7 39 7.7 SW 9 9 5 5 1011.1 1010.6 0.0
02/08:00pm 24.1 21.3 6.8 33 9.0 SW 11 13 6 7 1010.9 1010.4 0.0
02/07:30pm 26.1 22.9 6.7 29 10.2 SW 13 19 7 10 1010.5 1010.0 0.0
02/07:00pm 28.1 23.6 6.2 25 11.6 WSW 19 24 10 13 1010.3 1009.8 0.0
02/06:30pm 29.0 24.4 6.4 24 12.0 WSW 20 28 11 15 1010.0 1009.5 0.0
02/06:00pm 29.9 25.5 6.5 23 12.6 W 19 28 10 15 1009.8 1009.3 0.0
02/05:30pm 30.0 25.3 6.0 22 12.8 WNW 20 28 11 15 1009.8 1009.3 0.0
02/05:00pm 29.9 25.6 5.2 21 13.0 WNW 17 32 9 17 1009.8 1009.3 0.0
02/04:30pm 30.5 25.9 5.7 21 13.2 WNW 19 39 10 21 1009.8 1009.3 0.0
02/04:00pm 30.4 25.8 5.6 21 13.2 W 19 39 10 21 1009.8 1009.3 0.0
02/03:30pm 30.5 27.1 5.7 21 13.2 WNW 13 26 7 14 1010.0 1009.5 0.0
02/03:00pm 30.0 24.6 4.6 20 13.2 W 22 35 12 19 1010.2 1009.7 0.0
02/02:30pm 30.0 24.9 3.9 19 13.4 W 20 37 11 20 1010.4 1009.9 0.0
02/02:00pm 29.6 25.1 4.3 20 13.1 WNW 17 30 9 16 1010.5 1010.0 0.0
02/01:30pm 29.6 23.6 3.6 19 13.2 W 24 37 13 20 1010.6 1010.1 0.0
02/01:00pm 29.2 24.1 4.0 20 12.9 W 20 30 11 16 1010.4 1009.9 0.0
02/12:30pm 29.7 24.8 5.1 21 12.9 WSW 20 32 11 17 1010.4 1009.9 0.0
02/12:00pm 27.9 23.1 5.5 24 11.7 WSW 20 30 11 16 1010.4 1009.9 0.0
02/11:30am 27.3 22.9 6.7 27 10.9 W 19 30 10 16 1010.5 1010.0 0.0
02/11:00am 26.4 21.5 6.9 29 10.3 W 22 32 12 17 1010.5 1010.0 0.0
02/10:30am 26.1 21.9 8.1 32 9.7 W 20 32 11 17 1010.4 1009.9 0.0
02/10:00am 25.4 21.3 8.8 35 9.0 SW 20 28 11 15 1010.0 1009.5 0.0
02/09:30am 24.4 21.3 10.3 41 7.8 W 17 22 9 12 1009.9 1009.4 0.0
02/09:00am 22.9 20.5 10.0 44 7.1 W 13 20 7 11 1009.9 1009.4 0.0
02/08:30am 21.4 20.1 9.9 48 6.2 NW 7 9 4 5 1009.6 1009.1 0.0
02/08:00am 20.5 19.3 9.7 50 5.8 WNW 6 9 3 5 1009.1 1008.6 0.0
02/07:30am 19.3 19.1 8.9 51 5.5 CALM 0 7 0 4 1008.5 1008.0 0.0
02/07:00am 17.2 16.8 11.0 67 3.4 E 4 6 2 3 1007.8 1007.3 0.0
02/06:30am 13.6 12.5 10.0 79 1.9 SE 6 6 3 3 1007.4 1006.9 0.0
02/06:00am 12.4 11.1 9.2 81 1.6 ESE 6 7 3 4 1007.2 1006.7 0.0
02/05:30am 12.9 12.7 9.2 78 1.9 CALM 0 0 0 0 1007.1 1006.6 0.0
02/05:00am 14.3 14.1 8.9 70 2.8 CALM 0 0 0 0 1006.7 1006.3 0.0
02/04:30am 16.9 15.5 8.8 59 4.2 W 6 9 3 5 1006.6 1006.2 0.0
02/04:00am 16.3 14.5 9.5 64 3.6 W 9 13 5 7 1006.7 1006.3 0.0
02/03:30am 16.9 15.6 9.3 61 4.0 W 6 7 3 4 1006.4 1006.0 0.0
02/03:00am 19.2 17.5 8.2 49 5.7 WNW 7 9 4 5 1006.3 1005.9 0.0
02/02:30am 17.8 16.4 9.7 59 4.3 NW 7 9 4 5 1006.3 1005.9 0.0
02/02:00am 19.7 17.9 9.6 52 5.4 NW 9 11 5 6 1006.4 1006.0 0.0
02/01:30am 18.4 17.4 12.2 67 3.5 NNW 9 13 5 7 1006.4 1006.0 0.0
02/01:00am 17.2 16.6 12.3 73 2.7 NNW 7 9 4 5 1006.3 1005.9 0.0
02/12:30am 17.2 17.2 13.5 79 2.1 N 6 7 3 4 1006.2 1005.8 0.0
02/12:00am 17.8 17.1 11.4 66 3.5 N 6 6 3 3 1006.3 1005.9 0.0
 
Date/Time
EDT
Temp
°C
App
Temp
°C
Dew
Point
°C
Rel
Hum
%
Delta-T
°C
Wind Press
QNH
hPa
Press
MSL
hPa
Rain since
9am
mm
Dir  Spd
km/h
Gust
km/h
Spd
kts
Gust
kts
01/11:30pm 18.3 17.8 10.9 62 4.0 N 4 4 2 2 1006.6 1006.2 0.0
01/11:00pm 19.2 18.5 11.3 60 4.4 N 6 6 3 3 1006.6 1006.2 0.0
01/10:30pm 19.9 19.4 9.5 51 5.6 WNW 2 4 1 2 1006.7 1006.3 0.0
01/10:00pm 20.4 19.7 8.7 47 6.2 WNW 2 4 1 2 1006.7 1006.3 0.0
01/09:30pm 23.1 21.4 8.4 39 7.8 WNW 7 7 4 4 1006.4 1006.0 0.0
01/09:00pm 23.2 21.4 8.1 38 8.0 WNW 7 7 4 4 1006.1 1005.7 0.0
01/08:30pm 24.3 22.4 7.4 34 8.9 W 7 9 4 5 1006.0 1005.6 0.0
01/08:00pm 26.3 23.9 6.9 29 10.3 W 9 13 5 7 1005.8 1005.4 0.0
01/07:30pm 27.5 25.4 6.8 27 11.0 W 7 9 4 5 1005.5 1005.0 0.0
01/07:00pm 27.7 24.9 7.0 27 11.1 W 11 17 6 9 1005.2 1004.7 0.0
01/06:30pm 28.8 25.5 6.2 24 12.0 W 13 17 7 9 1005.1 1004.6 0.0
01/06:00pm 29.0 26.0 7.6 26 11.7 WNW 13 19 7 10 1005.0 1004.5 0.0
01/05:30pm 29.6 26.7 8.1 26 11.8 WNW 13 20 7 11 1004.9 1004.4 0.0

Other Formats:

Comma delimited format used in spreadsheet applications
http://www.bom.gov.au/fwo/IDV60801/IDV60801.94862.axf

JavaScript Object Notation format (JSON) in row-major order
http://www.bom.gov.au/fwo/IDV60801/IDV60801.94862.json